Impacts METAR Board
IDs:

KANB - Anniston Metro, AL, US

Updated at: 1000 UTC 16 Aug 2018
Potential Impact None Slight Moderate High
Time 15/22Z 15/23Z 16/00Z 16/01Z 16/02Z 16/03Z 16/04Z 16/05Z 16/06Z 16/07Z 16/08Z 16/09Z 16/10Z
Temp87 75 77 76 75 74 74 73 72 71 71 69 70
Dewpt69 69 70 70 70 70 70 69 69 69 69 68 68
Altim30.05 30.09 30.06 30.08 30.09 30.10 30.09 30.10 30.10 30.09 30.10 30.10 30.11
VIS10 7 10 10 10 10 10 10 10 10 10 7 8
CIG-- 110 -- -- -- -- -- -- -- -- -- -- --
CoverFEWBKNCLRCLRCLRCLRCLRCLRCLRCLRCLRCLRCLR
FltCatVFRVFRVFRVFRVFRVFRVFRVFRVFRVFRVFRVFRVFR
WXTS-TSRA----------------------
WDir160230002000000000
WSpd5 6 0 0 3 0 0 0 0 0 0 0 0
WGst-- -- -- -- -- -- -- -- -- -- -- -- --
Raw hourly METARs
KANB 152153Z AUTO 16005KT 10SM TS FEW110 31/21 A3005 RMK AO2 LTG DSNT S AND SW TSB48 SLP166 T03060206
KANB 152253Z AUTO 23006KT 7SM -TSRA BKN110 24/21 A3009 RMK AO2 RAB12 SLP181 P0003 T02390206
KANB 152353Z AUTO 00000KT 10SM CLR 25/21 A3006 RMK AO2 LTG DSNT S RAE16 TSE07 SLP173 P0000 60003 T02500211 10333 20233 50003
KANB 160053Z AUTO 00000KT 10SM CLR 24/21 A3008 RMK AO2 SLP177 T02440211
KANB 160153Z AUTO 02003KT 10SM CLR 24/21 A3009 RMK AO2 SLP181 T02390211
KANB 160253Z AUTO 00000KT 10SM CLR 23/21 A3010 RMK AO2 SLP182 T02330211 51012
KANB 160353Z AUTO 00000KT 10SM CLR 23/21 A3009 RMK AO2 SLP181 T02330211
KANB 160453Z AUTO 00000KT 10SM CLR 23/21 A3010 RMK AO2 SLP180 T02280206
KANB 160553Z AUTO 00000KT 10SM CLR 22/21 A3010 RMK AO2 SLP181 T02220206 10256 20217 403330200 55000
KANB 160653Z AUTO 00000KT 10SM CLR 22/21 A3009 RMK AO2 SLP179 T02170206
KANB 160753Z AUTO 00000KT 10SM CLR 22/21 A3010 RMK AO2 SLP181 T02170206
KANB 160853Z AUTO 00000KT 7SM CLR 21/20 A3010 RMK AO2 SLP184 T02060200 53002
KANB 160953Z AUTO 00000KT 8SM CLR 21/20 A3011 RMK AO2 SLP188 T02110200



Page loaded:  10:25 UTC  |   03:25 AM Pacific  |   04:25 AM Mountain  |   05:25 AM Central  |   06:25 AM Eastern

 

ADVISORIES

FORECASTS

FORECASTS

OBSERVATIONS

USER TOOLS

ABOUT US